createdAt,value
2017-10-09T00:01:07.246Z,0
2017-10-09T00:02:17.168Z,0
2017-10-09T00:03:27.350Z,0
2017-10-09T00:04:37.589Z,0
2017-10-09T00:05:47.827Z,0
2017-10-09T00:06:58.068Z,0
2017-10-09T00:08:08.006Z,0
2017-10-09T00:09:18.509Z,0
2017-10-09T00:10:28.749Z,0
2017-10-09T00:11:38.673Z,0
2017-10-09T00:12:48.905Z,0
2017-10-09T00:13:59.147Z,0
2017-10-09T00:15:09.632Z,0
2017-10-09T00:16:19.894Z,0
2017-10-09T00:17:30.133Z,0
2017-10-09T00:18:40.396Z,0
2017-10-09T00:19:50.649Z,0
2017-10-09T00:21:00.882Z,0
2017-10-09T00:22:11.145Z,0
2017-10-09T00:23:21.389Z,0
2017-10-09T00:24:31.635Z,0
2017-10-09T00:25:41.554Z,0
2017-10-09T00:26:52.083Z,0
2017-10-09T00:28:01.710Z,0
2017-10-09T00:29:11.955Z,0
2017-10-09T00:30:22.191Z,0
2017-10-09T00:31:32.444Z,0
2017-10-09T00:32:42.933Z,0
2017-10-09T00:33:53.182Z,0
2017-10-09T00:35:03.412Z,0
2017-10-09T00:36:13.338Z,0
2017-10-09T00:37:23.572Z,0
2017-10-09T00:38:34.065Z,0
2017-10-09T00:39:44.297Z,0
2017-10-09T00:40:53.899Z,0
2017-10-09T00:42:04.143Z,0
2017-10-09T00:43:14.069Z,0
2017-10-09T00:44:24.576Z,0
2017-10-09T00:45:34.495Z,0
2017-10-09T00:46:44.729Z,0
2017-10-09T00:47:54.652Z,0
2017-10-09T00:49:04.571Z,0
2017-10-09T00:50:15.073Z,0
2017-10-09T00:51:25.323Z,0
2017-10-09T00:52:35.550Z,0
2017-10-09T00:53:45.807Z,0
2017-10-09T00:54:56.045Z,0
2017-10-09T00:56:06.219Z,0
2017-10-09T00:57:16.467Z,0
2017-10-09T00:58:26.701Z,0
2017-10-09T00:59:36.936Z,0
2017-10-09T01:00:47.167Z,0
2017-10-09T01:01:57.702Z,0
2017-10-09T01:03:07.992Z,0
2017-10-09T01:04:18.240Z,0
2017-10-09T01:05:28.159Z,0
2017-10-09T01:06:37.456Z,0
2017-10-09T01:07:47.625Z,0
2017-10-09T01:08:57.895Z,0
2017-10-09T01:10:08.126Z,0
2017-10-09T01:11:17.754Z,0
2017-10-09T01:12:28.029Z,0
2017-10-09T01:13:38.516Z,0
2017-10-09T01:14:48.760Z,0
2017-10-09T01:15:58.689Z,0
2017-10-09T01:17:08.612Z,0
2017-10-09T01:18:18.855Z,0
2017-10-09T01:19:29.035Z,0
2017-10-09T01:20:39.286Z,0
2017-10-09T01:21:49.514Z,0
2017-10-09T01:22:59.753Z,0
2017-10-09T01:24:09.989Z,0
2017-10-09T01:25:20.476Z,0
2017-10-09T01:26:30.392Z,0
2017-10-09T01:27:40.314Z,0
2017-10-09T01:28:50.245Z,0
2017-10-09T01:30:00.481Z,0
2017-10-09T01:31:10.961Z,0
2017-10-09T01:32:21.201Z,0
2017-10-09T01:33:31.454Z,0
2017-10-09T01:34:41.697Z,0
2017-10-09T01:35:51.921Z,0
2017-10-09T01:37:02.093Z,0
2017-10-09T01:38:12.332Z,0
2017-10-09T01:39:22.564Z,0
2017-10-09T01:40:32.480Z,0
2017-10-09T01:41:42.433Z,0
2017-10-09T01:42:52.917Z,0
2017-10-09T01:44:02.856Z,0
2017-10-09T01:45:13.092Z,0
2017-10-09T01:46:23.339Z,0
2017-10-09T01:47:32.634Z,0
2017-10-09T01:48:43.118Z,0
2017-10-09T01:49:53.351Z,0
2017-10-09T01:51:03.582Z,0
2017-10-09T01:52:13.501Z,0
2017-10-09T01:53:23.732Z,0
2017-10-09T01:54:34.219Z,0
2017-10-09T01:55:44.173Z,0
2017-10-09T01:56:54.440Z,0
2017-10-09T01:58:04.689Z,0
2017-10-09T01:59:14.943Z,0
2017-10-09T02:00:24.872Z,0
2017-10-09T02:01:34.805Z,0
2017-10-09T02:02:44.734Z,0
2017-10-09T02:03:54.965Z,0
2017-10-09T02:05:05.199Z,0
2017-10-09T02:06:15.723Z,0
2017-10-09T02:07:25.955Z,0
2017-10-09T02:08:35.918Z,0
2017-10-09T02:09:46.165Z,0
2017-10-09T02:10:56.088Z,0
2017-10-09T02:12:06.588Z,0
2017-10-09T02:13:16.815Z,0
2017-10-09T02:14:26.736Z,0
2017-10-09T02:15:36.968Z,0
2017-10-09T02:16:47.210Z,0
2017-10-09T02:17:57.692Z,0
2017-10-09T02:19:07.633Z,0
2017-10-09T02:20:17.553Z,0
2017-10-09T02:21:27.793Z,0
2017-10-09T02:22:38.041Z,0
2017-10-09T02:23:48.534Z,0
2017-10-09T02:24:58.767Z,0
2017-10-09T02:26:08.687Z,0
2017-10-09T02:27:18.920Z,0
2017-10-09T02:28:29.160Z,0
2017-10-09T02:29:39.373Z,0
2017-10-09T02:30:49.289Z,0
2017-10-09T02:31:58.893Z,0
2017-10-09T02:33:09.128Z,0
2017-10-09T02:34:19.064Z,0
2017-10-09T02:35:29.250Z,0
2017-10-09T02:36:39.491Z,0
2017-10-09T02:37:49.421Z,0
2017-10-09T02:38:59.357Z,0
2017-10-09T02:40:09.633Z,0
2017-10-09T02:41:19.855Z,0
2017-10-09T02:42:30.096Z,0
2017-10-09T02:43:40.330Z,0
2017-10-09T02:44:50.574Z,0
2017-10-09T02:46:00.825Z,0
2017-10-09T02:47:11.002Z,0
2017-10-09T02:48:21.233Z,0
2017-10-09T02:49:31.155Z,0
2017-10-09T02:50:41.381Z,0
2017-10-09T02:51:51.625Z,0
2017-10-09T02:53:02.126Z,0
2017-10-09T02:54:12.366Z,0
2017-10-09T02:55:22.608Z,0
2017-10-09T02:56:32.841Z,0
2017-10-09T02:57:43.075Z,0
2017-10-09T02:58:53.252Z,0
2017-10-09T03:00:03.486Z,0
2017-10-09T03:01:13.726Z,0
2017-10-09T03:02:23.958Z,0
2017-10-09T03:03:34.206Z,0
2017-10-09T03:04:44.692Z,0
2017-10-09T03:05:54.925Z,0
2017-10-09T03:07:05.157Z,0
2017-10-09T03:08:15.408Z,0
2017-10-09T03:09:25.638Z,0
2017-10-09T03:10:35.501Z,0
2017-10-09T03:11:45.424Z,0
2017-10-09T03:12:55.662Z,0
2017-10-09T03:14:05.275Z,0
2017-10-09T03:15:15.210Z,0
2017-10-09T03:16:25.697Z,0
2017-10-09T03:17:35.614Z,0
2017-10-09T03:18:45.533Z,0
2017-10-09T03:19:55.454Z,0
2017-10-09T03:21:05.394Z,0
2017-10-09T03:22:15.878Z,0
2017-10-09T03:23:26.123Z,0
2017-10-09T03:24:36.352Z,0
2017-10-09T03:25:46.277Z,0
2017-10-09T03:26:56.507Z,0
2017-10-09T03:28:06.682Z,0
2017-10-09T03:29:16.597Z,0
2017-10-09T03:30:26.840Z,0
2017-10-09T03:31:36.760Z,0
2017-10-09T03:32:46.996Z,0
2017-10-09T03:33:57.484Z,0
2017-10-09T03:35:07.716Z,0
2017-10-09T03:36:17.665Z,0
2017-10-09T03:37:27.894Z,0
2017-10-09T03:38:38.122Z,0
2017-10-09T03:39:48.312Z,0
2017-10-09T03:40:58.552Z,0
2017-10-09T03:42:08.788Z,0
2017-10-09T03:43:19.044Z,0
2017-10-09T03:44:28.961Z,0
2017-10-09T03:45:39.445Z,0
2017-10-09T03:46:49.680Z,0
2017-10-09T03:47:59.926Z,0
2017-10-09T03:49:10.165Z,0
2017-10-09T03:50:20.394Z,0
2017-10-09T03:51:30.882Z,0
2017-10-09T03:52:41.121Z,0
2017-10-09T03:53:51.354Z,0
2017-10-09T03:55:01.594Z,0
2017-10-09T03:56:11.513Z,0
2017-10-09T03:57:21.679Z,0
2017-10-09T03:58:31.596Z,0
2017-10-09T03:59:41.201Z,0
2017-10-09T04:00:51.439Z,0
2017-10-09T04:02:01.670Z,0
2017-10-09T04:03:12.160Z,0
2017-10-09T04:04:21.809Z,0
2017-10-09T04:05:31.739Z,0
2017-10-09T04:06:41.971Z,0
2017-10-09T04:07:51.897Z,0
2017-10-09T04:09:02.384Z,0
2017-10-09T04:10:12.308Z,0
2017-10-09T04:11:22.542Z,0
2017-10-09T04:12:33.010Z,0
2017-10-09T04:13:43.256Z,0
2017-10-09T04:14:53.746Z,0
2017-10-09T04:16:03.971Z,0
2017-10-09T04:17:14.205Z,0
2017-10-09T04:18:24.441Z,0
2017-10-09T04:19:34.681Z,0
2017-10-09T04:20:44.535Z,0
2017-10-09T04:21:54.462Z,0
2017-10-09T04:23:04.706Z,0
2017-10-09T04:24:14.945Z,0
2017-10-09T04:25:25.179Z,0
2017-10-09T04:26:35.400Z,0
2017-10-09T04:27:45.626Z,0
2017-10-09T04:28:55.879Z,0
2017-10-09T04:30:06.124Z,0
2017-10-09T04:31:16.359Z,0
2017-10-09T04:32:26.908Z,0
2017-10-09T04:33:37.150Z,0
2017-10-09T04:34:47.069Z,0
2017-10-09T04:35:57.320Z,0
2017-10-09T04:37:07.563Z,0
2017-10-09T04:38:17.740Z,0
2017-10-09T04:39:27.968Z,0
2017-10-09T04:40:37.887Z,0
2017-10-09T04:41:47.801Z,0
2017-10-09T04:42:58.052Z,0
2017-10-09T04:44:08.535Z,0
2017-10-09T04:45:18.782Z,0
2017-10-09T04:46:28.712Z,0
2017-10-09T04:47:38.634Z,0
2017-10-09T04:48:48.880Z,0
2017-10-09T04:49:59.384Z,0
2017-10-09T04:51:09.310Z,0
2017-10-09T04:52:19.556Z,0
2017-10-09T04:53:29.791Z,0
2017-10-09T04:54:40.037Z,0
2017-10-09T04:55:50.222Z,0
2017-10-09T04:57:00.463Z,0
2017-10-09T04:58:10.727Z,0
2017-10-09T04:59:20.963Z,0
2017-10-09T05:00:31.204Z,0
2017-10-09T05:01:41.693Z,0
2017-10-09T05:02:51.611Z,0
2017-10-09T05:04:01.531Z,0
2017-10-09T05:05:11.474Z,0
2017-10-09T05:06:21.731Z,0
2017-10-09T05:07:31.897Z,0
2017-10-09T05:08:41.819Z,0
2017-10-09T05:09:52.046Z,0
2017-10-09T05:11:02.289Z,5
2017-10-09T05:12:12.540Z,5
2017-10-09T05:13:23.025Z,5
2017-10-09T05:14:33.250Z,5
2017-10-09T05:15:43.484Z,5
2017-10-09T05:16:53.727Z,10
2017-10-09T05:18:03.959Z,10
2017-10-09T05:19:14.454Z,10
2017-10-09T05:20:24.703Z,15
2017-10-09T05:21:34.930Z,15
2017-10-09T05:22:45.169Z,15
2017-10-09T05:23:55.412Z,20
2017-10-09T05:25:05.906Z,20
2017-10-09T05:26:15.844Z,25
2017-10-09T05:27:26.077Z,25
2017-10-09T05:28:36.314Z,30
2017-10-09T05:29:46.549Z,30
2017-10-09T05:30:56.719Z,35
2017-10-09T05:32:06.327Z,35
2017-10-09T05:33:16.558Z,40
2017-10-09T05:34:26.161Z,40
2017-10-09T05:35:36.408Z,45
2017-10-09T05:36:46.915Z,45
2017-10-09T05:37:57.148Z,50
2017-10-09T05:39:07.399Z,50
2017-10-09T05:40:17.660Z,55
2017-10-09T05:41:27.894Z,55
2017-10-09T05:42:38.388Z,60
2017-10-09T05:43:48.638Z,65
2017-10-09T05:44:58.580Z,65
2017-10-09T05:46:08.827Z,70
2017-10-09T05:47:18.762Z,70
2017-10-09T05:48:29.246Z,75
2017-10-09T05:49:38.911Z,75
2017-10-09T05:50:49.152Z,80
2017-10-09T05:51:59.394Z,85
2017-10-09T05:53:09.631Z,85
2017-10-09T05:54:20.186Z,90
2017-10-09T05:55:30.465Z,90
2017-10-09T05:56:40.732Z,95
2017-10-09T05:57:51.005Z,95
2017-10-09T05:59:01.266Z,100
2017-10-09T06:00:11.788Z,100
2017-10-09T06:01:21.792Z,105
2017-10-09T06:02:32.044Z,110
2017-10-09T06:03:41.717Z,110
2017-10-09T06:04:51.656Z,115
2017-10-09T06:06:02.150Z,115
2017-10-09T06:07:12.067Z,120
2017-10-09T06:08:22.000Z,120
2017-10-09T06:09:32.278Z,125
2017-10-09T06:10:42.537Z,125
2017-10-09T06:11:52.405Z,130
2017-10-09T06:13:02.652Z,130
2017-10-09T06:14:12.599Z,135
2017-10-09T06:15:22.842Z,135
2017-10-09T06:16:33.091Z,140
2017-10-09T06:17:43.277Z,140
2017-10-09T06:18:53.242Z,145
2017-10-09T06:20:03.480Z,145
2017-10-09T06:21:13.430Z,150
2017-10-09T06:22:23.899Z,150
2017-10-09T06:23:33.803Z,155
2017-10-09T06:24:43.764Z,155
2017-10-09T06:25:54.010Z,155
2017-10-09T06:27:04.246Z,160
2017-10-09T06:28:14.499Z,160
2017-10-09T06:29:25.100Z,165
2017-10-09T06:30:35.390Z,165
2017-10-09T06:31:45.648Z,170
2017-10-09T06:32:55.926Z,170
2017-10-09T06:34:05.886Z,175
2017-10-09T06:35:16.064Z,175
2017-10-09T06:36:25.666Z,175
2017-10-09T06:37:35.914Z,180
2017-10-09T06:38:46.090Z,180
2017-10-09T06:39:56.021Z,185
2017-10-09T06:41:06.563Z,185
2017-10-09T06:42:16.841Z,185
2017-10-09T06:43:27.085Z,190
2017-10-09T06:44:37.333Z,190
2017-10-09T06:45:47.595Z,195
2017-10-09T06:46:58.132Z,195
2017-10-09T06:48:08.432Z,200
2017-10-09T06:49:18.724Z,200
2017-10-09T06:50:29.211Z,200
2017-10-09T06:51:38.828Z,205
2017-10-09T06:52:49.040Z,205
2017-10-09T06:53:59.325Z,210
2017-10-09T06:55:09.614Z,210
2017-10-09T06:56:19.545Z,215
2017-10-09T06:57:29.820Z,220
2017-10-09T06:58:40.346Z,215
2017-10-09T06:59:50.595Z,220
2017-10-09T07:01:00.545Z,220
2017-10-09T07:02:10.785Z,225
2017-10-09T07:03:21.042Z,225
2017-10-09T07:04:31.226Z,230
2017-10-09T07:05:41.481Z,230
2017-10-09T07:06:51.758Z,230
2017-10-09T07:08:02.025Z,235
2017-10-09T07:09:12.276Z,235
2017-10-09T07:10:22.796Z,235
2017-10-09T07:11:33.058Z,240
2017-10-09T07:12:43.293Z,240
2017-10-09T07:13:53.574Z,240
2017-10-09T07:15:03.863Z,245
2017-10-09T07:16:14.398Z,245
2017-10-09T07:17:24.039Z,250
2017-10-09T07:18:34.011Z,250
2017-10-09T07:19:44.265Z,255
2017-10-09T07:20:54.542Z,260
2017-10-09T07:22:05.046Z,260
2017-10-09T07:23:14.970Z,265
2017-10-09T07:24:25.219Z,265
2017-10-09T07:25:35.135Z,265
2017-10-09T07:26:45.369Z,270
2017-10-09T07:27:55.563Z,275
2017-10-09T07:29:05.817Z,270
2017-10-09T07:30:16.075Z,275
2017-10-09T07:31:26.349Z,270
2017-10-09T07:32:36.589Z,265
2017-10-09T07:33:46.776Z,260
2017-10-09T07:34:57.010Z,265
2017-10-09T07:36:06.935Z,265
2017-10-09T07:37:16.859Z,270
2017-10-09T07:38:26.474Z,270
2017-10-09T07:39:36.675Z,270
2017-10-09T07:40:46.915Z,270
2017-10-09T07:41:57.164Z,270
2017-10-09T07:43:07.092Z,275
2017-10-09T07:44:17.387Z,275
2017-10-09T07:45:27.948Z,275
2017-10-09T07:46:37.895Z,275
2017-10-09T07:47:47.841Z,280
2017-10-09T07:48:58.101Z,280
2017-10-09T07:50:08.399Z,280
2017-10-09T07:51:18.978Z,340
2017-10-09T07:52:29.261Z,445
2017-10-09T07:53:38.894Z,475
2017-10-09T07:54:49.143Z,540
2017-10-09T07:55:59.393Z,575
2017-10-09T07:57:09.577Z,570
2017-10-09T07:58:19.552Z,540
2017-10-09T07:59:29.815Z,595
2017-10-09T08:00:40.097Z,625
2017-10-09T08:01:50.439Z,625
2017-10-09T08:03:00.948Z,640
2017-10-09T08:04:11.254Z,655
2017-10-09T08:05:21.537Z,670
2017-10-09T08:06:31.791Z,695
2017-10-09T08:07:42.030Z,670
2017-10-09T08:08:52.531Z,715
2017-10-09T08:10:02.466Z,750
2017-10-09T08:11:12.727Z,725
2017-10-09T08:12:22.416Z,765
2017-10-09T08:13:32.733Z,795
2017-10-09T08:14:43.236Z,780
2017-10-09T08:15:53.173Z,800
2017-10-09T08:17:03.432Z,810
2017-10-09T08:18:13.747Z,810
2017-10-09T08:19:24.000Z,835
2017-10-09T08:20:34.567Z,840
2017-10-09T08:21:44.827Z,845
2017-10-09T08:22:54.455Z,815
2017-10-09T08:24:04.405Z,805
2017-10-09T08:25:14.349Z,800
2017-10-09T08:26:24.607Z,815
2017-10-09T08:27:34.868Z,855
2017-10-09T08:28:45.149Z,835
2017-10-09T08:29:55.088Z,845
2017-10-09T08:31:05.022Z,860
2017-10-09T08:32:15.202Z,895
2017-10-09T08:33:24.849Z,870
2017-10-09T08:34:35.102Z,880
2017-10-09T08:35:45.398Z,950
2017-10-09T08:36:55.323Z,900
2017-10-09T08:38:05.547Z,900
2017-10-09T08:48:35.765Z,1110
2017-10-09T08:50:50.088Z,1200
2017-10-09T08:55:17.979Z,1290
2017-10-09T09:03:41.774Z,1305
2017-10-09T09:04:52.021Z,1380
2017-10-09T09:07:37.606Z,1505
2017-10-09T09:09:19.338Z,1510
2017-10-09T09:11:01.627Z,1475
2017-10-09T09:17:36.607Z,1590
2017-10-09T09:20:22.439Z,1570
2017-10-09T09:26:25.933Z,1740
2017-10-09T09:35:14.139Z,1675
2017-10-09T09:37:28.201Z,1815
2017-10-09T09:39:42.021Z,1900
2017-10-09T09:43:38.112Z,1900
2017-10-09T09:49:41.315Z,1895
2017-10-09T09:55:19.477Z,1990
2017-10-09T09:56:29.439Z,2020
2017-10-09T09:57:39.370Z,2080
2017-10-09T09:58:49.572Z,2040
2017-10-09T09:59:59.825Z,1960
2017-10-09T10:01:09.790Z,1825
2017-10-09T10:02:20.063Z,2105
2017-10-09T10:03:30.311Z,2210
2017-10-09T10:04:40.495Z,1885
2017-10-09T10:05:50.452Z,2040
2017-10-09T10:07:00.391Z,2140
2017-10-09T10:08:10.952Z,2070
2017-10-09T10:09:21.227Z,2070
2017-10-09T10:10:31.728Z,2110
2017-10-09T10:11:41.960Z,2065
2017-10-09T10:12:52.219Z,2275
2017-10-09T10:14:02.156Z,2175
2017-10-09T10:15:12.403Z,2050
2017-10-09T10:16:22.951Z,2160
2017-10-09T10:17:32.904Z,2165
2017-10-09T10:18:43.153Z,2140
2017-10-09T10:19:53.423Z,2180
2017-10-09T10:21:03.693Z,2280
2017-10-09T10:22:14.321Z,2175
2017-10-09T10:23:24.583Z,2050
2017-10-09T10:24:34.525Z,2170
2017-10-09T10:25:44.483Z,2280
2017-10-09T10:26:54.740Z,2330
2017-10-09T10:28:05.257Z,2245
2017-10-09T10:29:15.200Z,2225
2017-10-09T10:30:24.816Z,2270
2017-10-09T10:31:34.750Z,2220
2017-10-09T10:32:44.687Z,2210
2017-10-09T10:33:54.868Z,2290
2017-10-09T10:35:05.225Z,2350
2017-10-09T10:36:15.476Z,2375
2017-10-09T10:37:25.723Z,2355
2017-10-09T10:38:35.980Z,2305
2017-10-09T10:39:46.496Z,2320
2017-10-09T10:40:56.769Z,2345
2017-10-09T10:42:07.059Z,2365
2017-10-09T10:43:16.993Z,2385
2017-10-09T10:44:27.247Z,2370
2017-10-09T10:45:37.487Z,2290
2017-10-09T10:46:47.740Z,2340
2017-10-09T10:47:57.995Z,2385
2017-10-09T10:49:07.651Z,2330
2017-10-09T10:50:17.933Z,2375
2017-10-09T10:51:28.445Z,2485
2017-10-09T10:52:38.721Z,2460
2017-10-09T10:53:48.375Z,2425
2017-10-09T10:54:58.642Z,2430
2017-10-09T10:56:08.274Z,2405
2017-10-09T10:57:18.801Z,2445
2017-10-09T10:58:28.747Z,2460
2017-10-09T10:59:39.072Z,2485
2017-10-09T11:00:49.011Z,2510
2017-10-09T11:01:58.755Z,2585
2017-10-09T11:03:09.330Z,2685
2017-10-09T11:04:19.606Z,2660
2017-10-09T11:05:29.874Z,2605
2017-10-09T11:06:40.160Z,2595
2017-10-09T11:07:50.422Z,2635
2017-10-09T11:09:00.942Z,2665
2017-10-09T11:10:11.201Z,2710
2017-10-09T11:11:21.512Z,2730
2017-10-09T11:12:31.150Z,2700
2017-10-09T11:13:41.417Z,2675
2017-10-09T11:14:51.945Z,2730
2017-10-09T11:16:01.937Z,2435
2017-10-09T11:17:12.195Z,2770
2017-10-09T11:18:22.470Z,2775
2017-10-09T11:19:32.429Z,2760
2017-10-09T11:20:42.939Z,545
2017-10-09T11:21:53.218Z,2795
2017-10-09T11:23:02.852Z,785
2017-10-09T11:24:13.110Z,2795
2017-10-09T11:25:23.357Z,2605
2017-10-09T11:26:33.592Z,2750
2017-10-09T11:27:43.849Z,2745
2017-10-09T11:28:53.778Z,2830
2017-10-09T11:30:03.413Z,2855
2017-10-09T11:31:13.350Z,2860
2017-10-09T11:32:23.864Z,630
2017-10-09T11:33:34.126Z,2365
2017-10-09T11:34:44.393Z,2905
2017-10-09T11:35:54.678Z,2845
2017-10-09T11:37:04.614Z,1750
2017-10-09T11:38:14.820Z,2940
2017-10-09T11:39:25.073Z,2995
2017-10-09T11:40:35.323Z,3040
2017-10-09T11:41:45.277Z,2945
2017-10-09T11:42:55.542Z,2680
2017-10-09T11:44:06.044Z,3035
2017-10-09T11:45:16.300Z,3140
2017-10-09T11:46:26.251Z,1315
2017-10-09T11:47:36.509Z,670
2017-10-09T11:48:46.781Z,1575
2017-10-09T11:49:57.286Z,635
2017-10-09T11:51:07.221Z,2950
2017-10-09T11:52:17.493Z,2935
2017-10-09T11:53:27.746Z,3095
2017-10-09T11:54:38.324Z,3105
2017-10-09T11:55:48.200Z,2985
2017-10-09T11:56:58.474Z,3030
2017-10-09T11:58:08.732Z,550
2017-10-09T11:59:18.983Z,565
2017-10-09T12:00:29.244Z,2840
2017-10-09T12:01:39.132Z,2885
2017-10-09T12:02:48.441Z,2930
2017-10-09T12:03:58.090Z,3025
2017-10-09T12:05:08.345Z,2795
2017-10-09T12:06:18.296Z,2775
2017-10-09T12:07:28.844Z,2455
2017-10-09T12:08:38.825Z,3015
2017-10-09T12:09:49.099Z,3095
2017-10-09T12:10:59.051Z,1740
2017-10-09T12:12:09.353Z,580
2017-10-09T12:13:19.873Z,555
2017-10-09T12:14:30.140Z,2925
2017-10-09T12:15:40.411Z,790
2017-10-09T12:16:50.685Z,745
2017-10-09T12:18:00.654Z,605
2017-10-09T12:19:11.149Z,690
2017-10-09T12:20:21.092Z,2525
2017-10-09T12:21:31.042Z,875
2017-10-09T12:22:41.003Z,810
2017-10-09T12:23:51.294Z,730
2017-10-09T12:25:01.802Z,740
2017-10-09T12:26:11.803Z,725
2017-10-09T12:27:21.138Z,690
2017-10-09T12:28:31.389Z,965
2017-10-09T12:29:41.335Z,725
2017-10-09T12:30:51.873Z,640
2017-10-09T12:32:01.811Z,675
2017-10-09T12:33:11.752Z,585
2017-10-09T12:34:22.018Z,635
2017-10-09T12:35:32.285Z,690
2017-10-09T12:36:42.804Z,710
2017-10-09T12:37:53.050Z,2895
2017-10-09T12:39:03.311Z,1280
2017-10-09T12:40:13.557Z,1185
2017-10-09T12:41:23.806Z,2470
2017-10-09T12:42:34.315Z,635
2017-10-09T12:43:44.260Z,1390
2017-10-09T12:44:54.511Z,655
2017-10-09T12:46:04.757Z,565
2017-10-09T12:47:14.695Z,655
2017-10-09T12:48:25.205Z,620
2017-10-09T12:49:35.154Z,585
2017-10-09T12:50:45.405Z,600
2017-10-09T12:51:55.673Z,640
2017-10-09T12:53:05.925Z,655
2017-10-09T12:54:16.448Z,675
2017-10-09T12:55:26.692Z,700
2017-10-09T12:56:36.947Z,735
2017-10-09T12:57:47.221Z,780
2017-10-09T12:58:57.469Z,830
2017-10-09T13:00:07.974Z,970
2017-10-09T13:01:18.234Z,1215
2017-10-09T13:02:28.491Z,970
2017-10-09T13:03:37.791Z,1285
2017-10-09T13:04:48.064Z,2135
2017-10-09T13:05:58.596Z,1240
2017-10-09T13:07:08.842Z,3045
2017-10-09T13:08:19.085Z,1245
2017-10-09T13:09:29.040Z,1045
2017-10-09T13:10:39.299Z,895
2017-10-09T13:11:49.805Z,830
2017-10-09T13:12:59.772Z,725
2017-10-09T13:14:10.025Z,765
2017-10-09T13:15:20.281Z,720
2017-10-09T13:16:30.217Z,700
2017-10-09T13:17:40.724Z,625
2017-10-09T13:18:50.999Z,650
2017-10-09T13:20:01.253Z,695
2017-10-09T13:21:11.184Z,875
2017-10-09T13:22:21.440Z,2145
2017-10-09T13:23:31.946Z,1180
2017-10-09T13:24:42.208Z,780
2017-10-09T13:25:52.463Z,835
2017-10-09T13:27:02.414Z,765
2017-10-09T13:28:12.679Z,720
2017-10-09T13:29:22.884Z,665
2017-10-09T13:30:33.130Z,655
2017-10-09T13:31:43.056Z,1535
2017-10-09T13:32:53.312Z,745
2017-10-09T13:34:03.563Z,1100
2017-10-09T13:35:14.057Z,660
2017-10-09T13:36:24.319Z,525
2017-10-09T13:37:34.268Z,480
2017-10-09T13:38:44.551Z,490
2017-10-09T13:39:54.482Z,520
2017-10-09T13:41:04.688Z,555
2017-10-09T13:42:14.959Z,530
2017-10-09T13:43:24.907Z,490
2017-10-09T13:44:34.835Z,490
2017-10-09T13:49:34.159Z,535
2017-10-09T13:51:16.141Z,595
2017-10-09T13:52:58.172Z,540
2017-10-09T14:04:00.393Z,400
2017-10-09T14:06:45.977Z,360
2017-10-09T14:09:00.029Z,370
2017-10-09T14:13:27.957Z,550
2017-10-09T14:15:09.985Z,650
2017-10-09T14:17:55.816Z,635
2017-10-09T14:19:37.866Z,560
2017-10-09T14:21:51.664Z,650
2017-10-09T14:23:33.629Z,510
2017-10-09T14:30:53.349Z,160
2017-10-09T14:40:12.457Z,220
2017-10-09T14:41:22.465Z,260
2017-10-09T14:42:32.788Z,410
2017-10-09T14:43:43.128Z,305
2017-10-09T14:44:53.384Z,290
2017-10-09T14:46:03.424Z,235
2017-10-09T14:47:13.420Z,190
2017-10-09T14:48:23.082Z,150
2017-10-09T14:49:33.398Z,120
2017-10-09T14:50:43.646Z,105
2017-10-09T14:51:53.660Z,95
2017-10-09T14:53:03.644Z,90
2017-10-09T14:54:13.962Z,85
2017-10-09T14:55:24.284Z,80
2017-10-09T14:56:34.520Z,85
2017-10-09T14:57:44.845Z,80
2017-10-09T14:58:55.175Z,70
2017-10-09T15:00:04.853Z,70
2017-10-09T15:01:15.184Z,75
2017-10-09T15:02:25.781Z,90
2017-10-09T15:03:36.100Z,100
2017-10-09T15:04:46.463Z,100
2017-10-09T15:05:56.474Z,95
2017-10-09T15:07:06.803Z,95
2017-10-09T15:08:16.396Z,95
2017-10-09T15:09:26.721Z,90
2017-10-09T15:10:37.282Z,85
2017-10-09T15:11:47.266Z,80
2017-10-09T15:12:57.578Z,75
2017-10-09T15:14:08.389Z,70
2017-10-09T15:15:18.725Z,60
2017-10-09T15:16:28.708Z,55
2017-10-09T15:17:39.024Z,50
2017-10-09T15:18:48.351Z,50
2017-10-09T15:19:58.913Z,50
2017-10-09T15:21:08.903Z,55
2017-10-09T15:22:19.245Z,50
2017-10-09T15:23:29.571Z,50
2017-10-09T15:24:39.554Z,50
2017-10-09T15:25:50.130Z,45
2017-10-09T15:27:00.454Z,45
2017-10-09T15:28:10.783Z,45
2017-10-09T15:29:20.772Z,45
2017-10-09T15:30:31.103Z,50
2017-10-09T15:31:41.685Z,50
2017-10-09T15:32:52.023Z,55
2017-10-09T15:34:02.018Z,60
2017-10-09T15:35:12.347Z,65
2017-10-09T15:36:22.675Z,70
2017-10-09T15:37:32.910Z,75
2017-10-09T15:38:42.926Z,85
2017-10-09T15:39:53.240Z,90
2017-10-09T15:41:03.556Z,85
2017-10-09T15:42:13.876Z,80
2017-10-09T15:43:24.469Z,75
2017-10-09T15:44:34.492Z,65
2017-10-09T15:45:45.039Z,60
2017-10-09T15:46:55.360Z,55
2017-10-09T15:48:05.676Z,45
2017-10-09T15:49:15.910Z,40
2017-10-09T15:50:26.219Z,35
2017-10-09T15:51:36.549Z,30
2017-10-09T15:52:46.569Z,25
2017-10-09T15:53:56.893Z,25
2017-10-09T15:55:07.478Z,20
2017-10-09T15:56:17.799Z,20
2017-10-09T15:57:27.792Z,20
2017-10-09T15:58:37.781Z,20
2017-10-09T15:59:47.778Z,15
2017-10-09T16:00:58.008Z,15
2017-10-09T16:02:08.338Z,15
2017-10-09T16:03:18.656Z,10
2017-10-09T16:04:28.666Z,10
2017-10-09T16:05:38.984Z,10
2017-10-09T16:06:49.216Z,10
2017-10-09T16:07:59.535Z,10
2017-10-09T16:09:09.527Z,10
2017-10-09T16:10:19.867Z,10
2017-10-09T16:11:29.864Z,10
2017-10-09T16:12:40.516Z,5
2017-10-09T16:13:50.506Z,5
2017-10-09T16:15:00.510Z,5
2017-10-09T16:16:10.497Z,5
2017-10-09T16:17:20.515Z,5
2017-10-09T16:18:30.763Z,5
2017-10-09T16:19:40.760Z,5
2017-10-09T16:20:50.756Z,5
2017-10-09T16:22:01.083Z,5
2017-10-09T16:23:11.083Z,5
2017-10-09T16:24:21.656Z,5
2017-10-09T16:25:31.998Z,0
2017-10-09T16:26:42.333Z,0
2017-10-09T16:27:52.319Z,0
2017-10-09T16:29:02.306Z,0
2017-10-09T16:30:12.562Z,0
2017-10-09T16:31:22.889Z,0
2017-10-09T16:32:33.219Z,0
2017-10-09T16:33:43.209Z,0
2017-10-09T16:34:53.525Z,0
2017-10-09T16:36:03.768Z,0
2017-10-09T16:37:13.767Z,0
2017-10-09T16:38:24.085Z,0
2017-10-09T16:39:34.076Z,0
2017-10-09T16:40:44.059Z,0
2017-10-09T16:41:54.620Z,0
2017-10-09T16:43:04.293Z,0
2017-10-09T16:44:13.962Z,0
2017-10-09T16:45:23.940Z,0
2017-10-09T16:46:34.256Z,0
2017-10-09T16:47:44.551Z,0
2017-10-09T16:48:54.209Z,0
2017-10-09T16:50:04.198Z,0
2017-10-09T16:51:14.543Z,0
2017-10-09T16:52:24.549Z,0
2017-10-09T16:53:35.113Z,0
2017-10-09T16:54:45.438Z,0
2017-10-09T16:55:55.456Z,0
2017-10-09T16:57:05.779Z,0
2017-10-09T16:58:15.436Z,0
2017-10-09T16:59:26.050Z,0
2017-10-09T17:00:36.359Z,0
2017-10-09T17:01:46.697Z,0
2017-10-09T17:02:57.023Z,0
2017-10-09T17:04:07.344Z,0
2017-10-09T17:05:17.962Z,0
2017-10-09T17:06:28.278Z,0
2017-10-09T17:07:38.289Z,0
2017-10-09T17:08:47.983Z,0
2017-10-09T17:09:57.975Z,0
2017-10-09T17:11:08.565Z,0
2017-10-09T17:12:18.872Z,0
2017-10-09T17:13:29.246Z,0
2017-10-09T17:14:39.563Z,0
2017-10-09T17:15:49.895Z,0
2017-10-09T17:17:00.147Z,0
2017-10-09T17:18:10.488Z,0
2017-10-09T17:19:20.809Z,0
2017-10-09T17:20:30.791Z,0
2017-10-09T17:21:41.115Z,0
2017-10-09T17:22:51.362Z,0
2017-10-09T17:24:01.370Z,0
2017-10-09T17:25:11.387Z,0
2017-10-09T17:26:21.368Z,0
2017-10-09T17:27:31.689Z,0
2017-10-09T17:28:42.246Z,0
2017-10-09T17:29:51.924Z,0
2017-10-09T17:31:01.915Z,0
2017-10-09T17:32:12.241Z,0
2017-10-09T17:33:22.576Z,0
2017-10-09T17:34:32.807Z,0
2017-10-09T17:35:43.140Z,0
2017-10-09T17:36:53.468Z,0
2017-10-09T17:38:03.462Z,0
2017-10-09T17:39:13.831Z,0
2017-10-09T17:40:24.403Z,0
2017-10-09T17:41:34.724Z,0
2017-10-09T17:42:45.039Z,0
2017-10-09T17:43:55.371Z,0
2017-10-09T17:45:05.358Z,0
2017-10-09T17:46:15.936Z,0
2017-10-09T17:47:25.922Z,0
2017-10-09T17:48:35.919Z,0
2017-10-09T17:49:45.935Z,0
2017-10-09T17:50:56.246Z,0
2017-10-09T17:52:06.845Z,0
2017-10-09T17:53:16.836Z,0
2017-10-09T17:54:27.173Z,0
2017-10-09T17:55:37.501Z,0
2017-10-09T17:56:47.497Z,0
2017-10-09T17:57:57.107Z,0
2017-10-09T17:59:07.428Z,0
2017-10-09T18:00:17.759Z,0
2017-10-09T18:01:27.740Z,0
2017-10-09T18:02:37.743Z,0
2017-10-09T18:03:47.974Z,0
2017-10-09T18:04:58.305Z,0
2017-10-09T18:06:08.287Z,0
2017-10-09T18:07:18.275Z,0
2017-10-09T18:08:28.596Z,0
2017-10-09T18:09:38.852Z,0
2017-10-09T18:10:48.836Z,0
2017-10-09T18:11:58.511Z,0